createdAt,value
2022-09-09T00:00:22.733Z,19.59
2022-09-09T00:02:59.596Z,19.59
2022-09-09T00:05:34.916Z,19.42
2022-09-09T00:08:06.476Z,19.47
2022-09-09T00:10:40.567Z,19.48
2022-09-09T00:13:18.474Z,19.54
2022-09-09T00:15:57.991Z,19.65
2022-09-09T00:18:31.686Z,19.53
2022-09-09T00:21:07.457Z,19.50
2022-09-09T00:23:40.760Z,19.50
2022-09-09T00:26:17.228Z,19.43
2022-09-09T00:28:50.915Z,19.47
2022-09-09T00:31:25.668Z,19.44
2022-09-09T00:33:55.379Z,19.50
2022-09-09T00:36:26.381Z,19.39
2022-09-09T00:38:59.670Z,19.42
2022-09-09T00:41:40.874Z,19.45
2022-09-09T00:44:22.993Z,19.38
2022-09-09T00:47:01.280Z,19.36
2022-09-09T00:49:40.561Z,19.38
2022-09-09T00:52:22.693Z,19.35
2022-09-09T00:54:57.917Z,19.43
2022-09-09T00:57:29.971Z,19.49
2022-09-09T01:00:20.191Z,19.43
2022-09-09T01:02:58.088Z,19.35
2022-09-09T01:05:36.169Z,19.30
2022-09-09T01:08:13.292Z,19.36
2022-09-09T01:10:51.566Z,19.35
2022-09-09T01:13:26.109Z,19.24
2022-09-09T01:15:59.822Z,19.09
2022-09-09T01:18:35.571Z,19.16
2022-09-09T01:21:10.894Z,19.17
2022-09-09T01:23:55.242Z,19.19
2022-09-09T01:26:30.873Z,19.13
2022-09-09T01:28:58.945Z,19.21
2022-09-09T01:31:31.029Z,19.17
2022-09-09T01:33:58.988Z,19.08
2022-09-09T01:36:35.445Z,19.01
2022-09-09T01:39:03.924Z,18.93
2022-09-09T01:41:33.386Z,18.97
2022-09-09T01:44:01.510Z,18.97
2022-09-09T01:46:31.114Z,18.93
2022-09-09T01:49:01.314Z,18.94
2022-09-09T01:51:29.584Z,18.98
2022-09-09T01:53:57.571Z,18.91
2022-09-09T01:56:38.023Z,18.81
2022-09-09T01:59:15.198Z,18.94
2022-09-09T02:01:57.558Z,18.69
2022-09-09T02:04:37.956Z,18.86
2022-09-09T02:07:24.840Z,18.85
2022-09-09T02:10:01.086Z,18.80
2022-09-09T02:12:32.694Z,18.97
2022-09-09T02:15:07.162Z,18.78
2022-09-09T02:17:38.701Z,18.85
2022-09-09T02:20:09.941Z,18.86
2022-09-09T02:22:41.667Z,18.86
2022-09-09T02:25:12.254Z,18.86
2022-09-09T02:27:45.381Z,18.87
2022-09-09T02:30:14.632Z,18.81
2022-09-09T02:32:45.494Z,18.82
2022-09-09T02:35:16.637Z,18.80
2022-09-09T02:37:48.168Z,18.75
2022-09-09T02:40:17.544Z,18.67
2022-09-09T02:42:48.701Z,18.54
2022-09-09T02:45:20.382Z,18.71
2022-09-09T02:47:56.133Z,18.78
2022-09-09T02:50:28.230Z,18.61
2022-09-09T02:53:09.285Z,18.52
2022-09-09T02:55:43.345Z,18.50
2022-09-09T02:58:18.044Z,18.47
2022-09-09T03:00:47.769Z,18.48
2022-09-09T03:03:17.498Z,18.28
2022-09-09T03:05:46.166Z,18.25
2022-09-09T03:08:15.495Z,18.24
2022-09-09T03:10:43.583Z,18.18
2022-09-09T03:13:13.260Z,18.22
2022-09-09T03:15:41.178Z,18.29
2022-09-09T03:18:09.518Z,18.26
2022-09-09T03:20:37.437Z,18.14
2022-09-09T03:23:05.344Z,18.13
2022-09-09T03:25:34.615Z,18.35
2022-09-09T03:28:02.928Z,18.40
2022-09-09T03:30:32.232Z,18.34
2022-09-09T03:33:00.123Z,18.31
2022-09-09T03:35:28.042Z,18.40
2022-09-09T03:37:56.087Z,18.43
2022-09-09T03:40:24.206Z,18.33
2022-09-09T03:42:52.155Z,18.26
2022-09-09T03:45:20.634Z,18.45
2022-09-09T03:47:50.143Z,18.29
2022-09-09T03:50:19.613Z,18.29
2022-09-09T03:52:47.849Z,18.32
2022-09-09T03:55:15.778Z,18.32
2022-09-09T03:57:43.744Z,18.34
2022-09-09T04:00:12.901Z,18.39
2022-09-09T04:02:40.821Z,18.35
2022-09-09T04:05:11.041Z,18.46
2022-09-09T04:07:38.973Z,18.35
2022-09-09T04:10:08.399Z,18.33
2022-09-09T04:12:36.897Z,18.44
2022-09-09T04:15:05.142Z,18.35
2022-09-09T04:17:33.973Z,18.41
2022-09-09T04:20:02.361Z,18.48
2022-09-09T04:22:31.655Z,18.44
2022-09-09T04:24:59.550Z,18.40
2022-09-09T04:27:27.470Z,18.52
2022-09-09T04:29:57.958Z,18.57
2022-09-09T04:32:27.765Z,18.67
2022-09-09T04:34:55.658Z,18.62
2022-09-09T04:37:23.567Z,18.83
2022-09-09T04:39:53.118Z,18.82
2022-09-09T04:42:21.046Z,18.89
2022-09-09T04:44:48.957Z,19.15
2022-09-09T04:47:16.879Z,19.34
2022-09-09T04:49:44.762Z,19.42
2022-09-09T04:52:12.667Z,19.47
2022-09-09T04:54:41.433Z,19.69
2022-09-09T04:57:17.980Z,19.94
2022-09-09T04:59:47.115Z,19.95
2022-09-09T05:02:15.101Z,20.16
2022-09-09T05:04:43.078Z,20.22
2022-09-09T05:07:11.507Z,20.31
2022-09-09T05:09:39.409Z,20.42
2022-09-09T05:12:07.641Z,20.55
2022-09-09T05:14:38.538Z,20.70
2022-09-09T05:17:06.453Z,20.81
2022-09-09T05:19:34.381Z,20.97
2022-09-09T05:22:02.366Z,21.08
2022-09-09T05:24:30.465Z,21.18
2022-09-09T05:26:59.188Z,21.43
2022-09-09T05:29:27.702Z,21.40
2022-09-09T05:31:57.065Z,21.69
2022-09-09T05:34:25.105Z,21.89
2022-09-09T05:36:53.279Z,22.01
2022-09-09T05:39:21.212Z,22.19
2022-09-09T05:41:49.156Z,22.32
2022-09-09T05:44:17.160Z,22.55
2022-09-09T05:46:45.861Z,22.58
2022-09-09T05:49:16.746Z,22.74
2022-09-09T05:51:45.376Z,22.80
2022-09-09T05:54:16.023Z,22.97
2022-09-09T05:56:45.485Z,23.15
2022-09-09T05:59:15.999Z,23.34
2022-09-09T06:01:43.998Z,23.43
2022-09-09T06:04:12.112Z,23.63
2022-09-09T06:06:42.998Z,23.73
2022-09-09T06:09:12.486Z,23.92
2022-09-09T06:11:41.634Z,24.09
2022-09-09T06:14:10.224Z,24.26
2022-09-09T06:16:39.305Z,24.33
2022-09-09T06:19:07.614Z,24.56
2022-09-09T06:21:38.267Z,24.75
2022-09-09T06:24:08.679Z,24.76
2022-09-09T06:26:38.741Z,24.91
2022-09-09T06:29:06.994Z,25.16
2022-09-09T06:31:38.051Z,25.21
2022-09-09T06:34:07.635Z,25.39
2022-09-09T06:36:38.090Z,25.46
2022-09-09T06:39:14.243Z,25.60
2022-09-09T06:41:43.655Z,25.79
2022-09-09T06:44:12.907Z,26.00
2022-09-09T06:46:41.017Z,26.08
2022-09-09T06:49:10.155Z,26.36
2022-09-09T06:51:43.762Z,26.55
2022-09-09T06:54:14.071Z,26.75
2022-09-09T06:56:44.307Z,26.88
2022-09-09T06:59:13.347Z,27.09
2022-09-09T07:01:42.918Z,27.17
2022-09-09T07:04:12.035Z,27.31
2022-09-09T07:06:42.085Z,27.48
2022-09-09T07:09:11.797Z,27.60
2022-09-09T07:11:43.438Z,27.61
2022-09-09T07:14:15.091Z,28.13
2022-09-09T07:16:43.207Z,28.31
2022-09-09T07:19:12.242Z,28.44
2022-09-09T07:21:41.388Z,28.62
2022-09-09T07:24:11.268Z,28.61
2022-09-09T07:26:41.546Z,28.66
2022-09-09T07:29:09.932Z,28.83
2022-09-09T07:31:39.463Z,28.94
2022-09-09T07:34:08.075Z,28.95
2022-09-09T07:36:37.664Z,29.02
2022-09-09T07:39:08.206Z,29.05
2022-09-09T07:41:38.703Z,29.27
2022-09-09T07:44:09.321Z,29.50
2022-09-09T07:46:38.197Z,29.45
2022-09-09T07:49:06.296Z,29.65
2022-09-09T07:51:36.237Z,29.81
2022-09-09T07:54:08.728Z,29.86
2022-09-09T07:56:37.206Z,29.92
2022-09-09T07:59:07.281Z,29.93
2022-09-09T08:01:40.438Z,30.09
2022-09-09T08:04:11.204Z,30.35
2022-09-09T08:06:41.071Z,30.28
2022-09-09T08:09:10.790Z,30.35
2022-09-09T08:11:39.563Z,30.43
2022-09-09T08:14:08.764Z,30.33
2022-09-09T08:16:40.131Z,30.43
2022-09-09T08:19:08.629Z,30.57
2022-09-09T08:21:40.052Z,30.63
2022-09-09T08:24:09.827Z,30.69
2022-09-09T08:26:39.241Z,30.68
2022-09-09T08:29:09.142Z,30.79
2022-09-09T08:31:39.866Z,30.97
2022-09-09T08:34:10.232Z,31.04
2022-09-09T08:36:41.637Z,31.05
2022-09-09T08:39:10.249Z,31.05
2022-09-09T08:42:20.125Z,31.15
2022-09-09T08:45:01.347Z,31.09
2022-09-09T08:47:40.888Z,31.42
2022-09-09T08:50:22.702Z,31.49
2022-09-09T08:52:56.385Z,31.61
2022-09-09T08:55:30.970Z,31.77
2022-09-09T08:58:12.379Z,31.51
2022-09-09T09:00:54.950Z,31.56
2022-09-09T09:03:36.295Z,31.43
2022-09-09T09:06:15.181Z,31.67
2022-09-09T09:08:50.727Z,31.52
2022-09-09T09:11:18.990Z,31.63
2022-09-09T09:13:53.538Z,31.66
2022-09-09T09:16:27.626Z,31.82
2022-09-09T09:18:58.253Z,31.67
2022-09-09T09:21:36.849Z,31.79
2022-09-09T09:24:10.325Z,31.79
2022-09-09T09:26:38.439Z,31.73
2022-09-09T09:29:14.140Z,31.78
2022-09-09T09:31:46.975Z,31.86
2022-09-09T09:34:16.184Z,31.70
2022-09-09T09:36:48.268Z,31.55
2022-09-09T09:42:18.827Z,31.42
2022-09-09T09:44:49.639Z,31.35
2022-09-09T09:47:19.674Z,31.61
2022-09-09T09:49:55.550Z,31.66
2022-09-09T09:52:25.750Z,31.44
2022-09-09T09:54:55.400Z,31.55
2022-09-09T09:57:28.938Z,31.59
2022-09-09T10:00:06.622Z,31.53
2022-09-09T10:02:41.221Z,31.58
2022-09-09T10:05:16.694Z,31.59
2022-09-09T10:07:46.902Z,31.85
2022-09-09T10:10:22.169Z,31.89
2022-09-09T10:13:01.045Z,31.96
2022-09-09T10:15:40.801Z,32.01
2022-09-09T10:18:22.651Z,31.92
2022-09-09T10:21:01.566Z,31.75
2022-09-09T10:23:47.724Z,31.68
2022-09-09T10:26:34.402Z,31.87
2022-09-09T10:29:29.411Z,31.92
2022-09-09T10:32:12.372Z,31.84
2022-09-09T10:34:57.727Z,32.03
2022-09-09T10:37:39.359Z,32.08
2022-09-09T10:40:25.758Z,32.09
2022-09-09T10:42:56.338Z,32.15
2022-09-09T10:45:35.763Z,32.10
2022-09-09T10:48:23.393Z,31.53
2022-09-09T10:51:01.139Z,31.66
2022-09-09T10:53:39.818Z,31.82
2022-09-09T10:56:11.839Z,31.67
2022-09-09T10:58:45.694Z,31.72
2022-09-09T11:01:21.272Z,31.93
2022-09-09T11:03:56.692Z,31.75
2022-09-09T11:06:31.321Z,31.80
2022-09-09T11:09:04.340Z,31.84
2022-09-09T11:11:39.207Z,31.99
2022-09-09T11:14:16.055Z,32.04
2022-09-09T11:16:49.884Z,32.19
2022-09-09T11:19:24.585Z,32.04
2022-09-09T11:21:54.378Z,31.99
2022-09-09T11:24:30.617Z,31.94
2022-09-09T11:27:05.134Z,32.10
2022-09-09T11:29:53.609Z,32.23
2022-09-09T11:32:47.286Z,31.90
2022-09-09T11:35:33.707Z,31.58
2022-09-09T11:38:23.687Z,31.30
2022-09-09T11:41:01.513Z,30.86
2022-09-09T11:43:32.750Z,30.98
2022-09-09T11:46:03.873Z,31.15
2022-09-09T11:48:35.876Z,31.43
2022-09-09T11:51:11.044Z,31.64
2022-09-09T11:53:51.458Z,31.61
2022-09-09T11:56:30.023Z,31.45
2022-09-09T11:59:03.130Z,31.36
2022-09-09T12:01:37.068Z,31.59
2022-09-09T12:04:30.369Z,31.75
2022-09-09T12:06:59.813Z,31.46
2022-09-09T12:09:33.992Z,31.62
2022-09-09T12:12:24.361Z,31.79
2022-09-09T12:15:24.130Z,31.47
2022-09-09T12:17:54.373Z,31.31
2022-09-09T12:20:24.669Z,31.27
2022-09-09T12:23:13.366Z,30.95
2022-09-09T12:26:04.975Z,30.97
2022-09-09T12:28:48.833Z,30.33
2022-09-09T12:31:24.563Z,29.77
2022-09-09T12:33:53.791Z,29.81
2022-09-09T12:36:24.310Z,29.81
2022-09-09T12:38:53.483Z,29.71
2022-09-09T12:41:23.404Z,29.65
2022-09-09T12:43:53.845Z,29.59
2022-09-09T12:46:33.766Z,29.70
2022-09-09T12:49:01.919Z,29.77
2022-09-09T12:51:32.873Z,29.73
2022-09-09T12:54:01.848Z,29.95
2022-09-09T12:56:33.277Z,30.05
2022-09-09T12:59:02.862Z,30.25
2022-09-09T13:01:32.844Z,30.24
2022-09-09T13:04:01.747Z,30.09
2022-09-09T13:06:31.131Z,29.76
2022-09-09T13:09:01.024Z,29.88
2022-09-09T13:11:33.061Z,29.82
2022-09-09T13:14:02.866Z,29.72
2022-09-09T13:16:33.390Z,29.78
2022-09-09T13:19:08.350Z,29.77
2022-09-09T13:21:38.317Z,29.74
2022-09-09T13:24:08.655Z,29.68
2022-09-09T13:26:37.255Z,29.53
2022-09-09T13:29:22.661Z,29.73
2022-09-09T13:31:53.961Z,29.62
2022-09-09T13:34:29.806Z,29.74
2022-09-09T13:37:03.514Z,29.53
2022-09-09T13:39:31.677Z,29.37
2022-09-09T13:41:59.880Z,29.28
2022-09-09T13:44:32.759Z,29.19
2022-09-09T13:47:10.273Z,29.14
2022-09-09T13:49:38.806Z,29.08
2022-09-09T13:52:11.520Z,28.97
2022-09-09T13:54:40.304Z,28.96
2022-09-09T13:57:16.054Z,28.93
2022-09-09T14:00:01.603Z,28.81
2022-09-09T14:02:33.282Z,28.80
2022-09-09T14:05:01.276Z,28.73
2022-09-09T14:07:29.505Z,28.80
2022-09-09T14:09:57.723Z,28.79
2022-09-09T14:12:26.390Z,28.83
2022-09-09T14:14:55.685Z,28.81
2022-09-09T14:17:24.093Z,28.50
2022-09-09T14:19:52.075Z,28.37
2022-09-09T14:22:20.000Z,28.18
2022-09-09T14:24:48.193Z,28.34
2022-09-09T14:27:16.222Z,28.34
2022-09-09T14:29:44.649Z,28.45
2022-09-09T14:32:14.340Z,28.40
2022-09-09T14:34:42.278Z,28.29
2022-09-09T14:37:10.195Z,28.33
2022-09-09T14:39:38.125Z,28.41
2022-09-09T14:42:06.682Z,28.50
2022-09-09T14:44:34.749Z,28.46
2022-09-09T14:47:02.946Z,28.36
2022-09-09T14:49:32.371Z,28.26
2022-09-09T14:52:01.982Z,28.17
2022-09-09T14:54:30.240Z,28.10
2022-09-09T14:56:58.998Z,27.99
2022-09-09T14:59:27.931Z,28.05
2022-09-09T15:01:55.909Z,28.11
2022-09-09T15:04:23.835Z,28.13
2022-09-09T15:06:54.357Z,28.11
2022-09-09T15:09:22.274Z,28.09
2022-09-09T15:11:50.234Z,28.03
2022-09-09T15:14:22.316Z,28.05
2022-09-09T15:16:53.291Z,27.97
2022-09-09T15:19:21.252Z,27.96
2022-09-09T15:21:50.000Z,27.98
2022-09-09T15:24:19.371Z,27.89
2022-09-09T15:26:47.545Z,27.72
2022-09-09T15:29:15.510Z,27.68
2022-09-09T15:31:43.426Z,27.57
2022-09-09T15:34:11.342Z,27.57
2022-09-09T15:36:41.295Z,27.50
2022-09-09T15:39:13.686Z,27.32
2022-09-09T15:41:43.555Z,27.05
2022-09-09T15:44:13.259Z,27.00
2022-09-09T15:46:42.982Z,26.81
2022-09-09T15:49:13.016Z,26.80
2022-09-09T15:51:44.524Z,26.48
2022-09-09T15:54:14.489Z,26.21
2022-09-09T15:56:44.234Z,26.09
2022-09-09T15:59:12.471Z,25.62
2022-09-09T16:01:41.871Z,25.19
2022-09-09T16:04:10.684Z,25.05
2022-09-09T16:06:40.249Z,25.07
2022-09-09T16:09:09.298Z,24.97
2022-09-09T16:11:39.993Z,24.71
2022-09-09T16:14:09.822Z,24.75
2022-09-09T16:16:37.846Z,24.02
2022-09-09T16:19:08.202Z,23.86
2022-09-09T16:21:38.789Z,24.20
2022-09-09T16:24:08.277Z,24.42
2022-09-09T16:26:38.692Z,24.40
2022-09-09T16:29:06.781Z,24.55
2022-09-09T16:31:36.245Z,24.53
2022-09-09T16:34:05.390Z,24.58
2022-09-09T16:36:35.986Z,24.54
2022-09-09T16:39:06.909Z,24.55
2022-09-09T16:41:35.480Z,24.39
2022-09-09T16:44:05.772Z,24.41
2022-09-09T16:46:37.889Z,24.11
2022-09-09T16:49:08.390Z,24.32
2022-09-09T16:51:38.521Z,24.39
2022-09-09T16:54:09.051Z,24.38
2022-09-09T16:56:39.151Z,24.29
2022-09-09T16:59:08.695Z,24.26
2022-09-09T17:01:39.624Z,24.15
2022-09-09T17:04:09.511Z,24.15
2022-09-09T17:06:39.154Z,24.16
2022-09-09T17:09:11.117Z,24.24
2022-09-09T17:11:40.007Z,24.19
2022-09-09T17:14:10.378Z,24.28
2022-09-09T17:16:41.358Z,24.16
2022-09-09T17:19:10.434Z,24.22
2022-09-09T17:21:49.899Z,24.16
2022-09-09T17:24:27.785Z,24.16
2022-09-09T17:26:56.335Z,24.18
2022-09-09T17:29:24.319Z,24.18
2022-09-09T17:31:53.634Z,24.12
2022-09-09T17:34:21.951Z,23.97
2022-09-09T17:36:50.248Z,24.10
2022-09-09T17:39:18.186Z,24.03
2022-09-09T17:41:46.607Z,24.06
2022-09-09T17:44:14.562Z,24.08
2022-09-09T17:46:44.679Z,23.96
2022-09-09T17:49:17.073Z,24.00
2022-09-09T17:51:46.159Z,23.93
2022-09-09T17:54:16.298Z,24.05
2022-09-09T17:56:45.071Z,23.96
2022-09-09T17:59:14.809Z,23.72
2022-09-09T18:01:45.241Z,23.60
2022-09-09T18:04:16.441Z,23.77
2022-09-09T18:06:47.066Z,23.78
2022-09-09T18:09:17.494Z,23.73
2022-09-09T18:11:47.657Z,23.75
2022-09-09T18:14:18.320Z,23.76
2022-09-09T18:16:47.238Z,23.69
2022-09-09T18:19:20.301Z,23.63
2022-09-09T18:21:49.283Z,23.63
2022-09-09T18:24:19.339Z,23.61
2022-09-09T18:26:48.292Z,23.62
2022-09-09T18:29:18.211Z,23.51
2022-09-09T18:31:46.210Z,23.51
2022-09-09T18:34:15.507Z,23.46
2022-09-09T18:36:46.949Z,23.42
2022-09-09T18:39:17.089Z,23.31
2022-09-09T18:41:47.568Z,23.33
2022-09-09T18:44:17.489Z,23.39
2022-09-09T18:46:46.238Z,23.32
2022-09-09T18:49:15.327Z,23.28
2022-09-09T18:51:46.662Z,23.18
2022-09-09T18:54:17.323Z,23.17
2022-09-09T18:56:45.892Z,23.12
2022-09-09T18:59:16.778Z,23.08
2022-09-09T19:01:45.571Z,23.15
2022-09-09T19:04:13.958Z,23.26
2022-09-09T19:06:46.491Z,23.22
2022-09-09T19:09:15.239Z,23.25
2022-09-09T19:11:43.792Z,23.30
2022-09-09T19:14:13.857Z,23.33
2022-09-09T19:16:42.819Z,23.30
2022-09-09T19:19:14.447Z,23.24
2022-09-09T19:21:44.543Z,23.21
2022-09-09T19:24:15.125Z,23.14
2022-09-09T19:26:44.625Z,23.12
2022-09-09T19:29:16.262Z,23.00
2022-09-09T19:31:59.588Z,22.77
2022-09-09T19:34:32.937Z,22.70
2022-09-09T19:37:02.262Z,22.75
2022-09-09T19:39:30.320Z,22.76
2022-09-09T19:41:58.247Z,22.96
2022-09-09T19:44:26.234Z,23.06
2022-09-09T19:46:55.506Z,23.08
2022-09-09T19:49:23.498Z,23.14
2022-09-09T19:51:51.709Z,23.09
2022-09-09T19:54:21.210Z,23.10
2022-09-09T19:56:49.121Z,23.16
2022-09-09T19:59:17.033Z,23.11
2022-09-09T20:01:46.298Z,23.08
2022-09-09T20:04:17.229Z,23.19
2022-09-09T20:06:46.035Z,23.07
2022-09-09T20:09:15.726Z,23.06
2022-09-09T20:11:46.319Z,23.08
2022-09-09T20:14:14.949Z,23.01
2022-09-09T20:16:45.608Z,23.05
2022-09-09T20:19:16.192Z,23.06
2022-09-09T20:21:47.739Z,23.01
2022-09-09T20:24:17.306Z,22.93
2022-09-09T20:26:48.180Z,22.49
2022-09-09T20:29:18.368Z,22.74
2022-09-09T20:31:46.982Z,22.68
2022-09-09T20:34:16.620Z,22.75
2022-09-09T20:36:46.123Z,22.76
2022-09-09T20:39:16.265Z,22.82
2022-09-09T20:41:46.716Z,22.75
2022-09-09T20:44:16.943Z,22.69
2022-09-09T20:46:48.171Z,22.70
2022-09-09T20:49:17.586Z,22.69
2022-09-09T20:51:45.899Z,22.72
2022-09-09T20:54:16.141Z,22.75
2022-09-09T20:56:46.738Z,22.73
2022-09-09T20:59:16.264Z,22.57
2022-09-09T21:01:47.149Z,22.48
2022-09-09T21:04:16.686Z,22.35
2022-09-09T21:06:45.031Z,22.32
2022-09-09T21:09:13.697Z,22.38
2022-09-09T21:11:42.078Z,22.46
2022-09-09T21:14:12.640Z,22.39
2022-09-09T21:16:40.569Z,22.41
2022-09-09T21:19:08.585Z,22.33
2022-09-09T21:21:37.317Z,22.39
2022-09-09T21:24:05.573Z,22.44
2022-09-09T21:26:33.519Z,22.46
2022-09-09T21:29:01.440Z,22.43
2022-09-09T21:31:31.533Z,22.43
2022-09-09T21:33:59.610Z,22.41
2022-09-09T21:36:28.610Z,22.31
2022-09-09T21:38:56.853Z,22.40
2022-09-09T21:41:25.006Z,22.23
2022-09-09T21:43:54.454Z,21.90
2022-09-09T21:46:23.458Z,21.94
2022-09-09T21:48:55.313Z,21.82
2022-09-09T21:51:23.455Z,21.87
2022-09-09T21:53:51.598Z,21.95
2022-09-09T21:56:20.658Z,22.03
2022-09-09T21:58:48.638Z,21.95
2022-09-09T22:01:19.931Z,21.77
2022-09-09T22:03:48.022Z,21.76
2022-09-09T22:06:19.357Z,21.87
2022-09-09T22:08:48.089Z,21.86
2022-09-09T22:11:18.982Z,21.72
2022-09-09T22:13:47.301Z,21.78
2022-09-09T22:16:19.107Z,21.84
2022-09-09T22:18:52.713Z,21.59
2022-09-09T22:21:23.137Z,21.68
2022-09-09T22:23:55.042Z,21.63
2022-09-09T22:26:23.027Z,21.45
2022-09-09T22:28:51.830Z,21.28
2022-09-09T22:31:20.923Z,21.42
2022-09-09T22:33:49.079Z,21.42
2022-09-09T22:36:16.997Z,21.47
2022-09-09T22:38:46.314Z,21.46
2022-09-09T22:41:14.580Z,21.51
2022-09-09T22:43:43.758Z,21.40
2022-09-09T22:46:12.503Z,21.32
2022-09-09T22:48:41.015Z,21.18
2022-09-09T22:51:12.221Z,21.15
2022-09-09T22:53:41.030Z,21.18
2022-09-09T22:56:14.715Z,21.17
2022-09-09T22:58:42.577Z,21.07
2022-09-09T23:01:13.984Z,21.00
2022-09-09T23:03:46.122Z,20.92
2022-09-09T23:06:22.397Z,20.87
2022-09-09T23:08:52.199Z,20.82
2022-09-09T23:11:21.561Z,20.75
2022-09-09T23:13:52.671Z,20.68
2022-09-09T23:16:25.361Z,20.64
2022-09-09T23:18:55.233Z,20.51
2022-09-09T23:21:28.302Z,20.27
2022-09-09T23:23:57.776Z,20.17
2022-09-09T23:26:30.027Z,20.02
2022-09-09T23:28:59.489Z,19.94
2022-09-09T23:31:30.023Z,19.76
2022-09-09T23:33:59.202Z,19.67
2022-09-09T23:36:29.659Z,19.67
2022-09-09T23:38:58.758Z,19.74
2022-09-09T23:41:28.287Z,19.83
2022-09-09T23:43:56.361Z,19.82
2022-09-09T23:46:27.458Z,19.68
2022-09-09T23:48:57.111Z,19.67
2022-09-09T23:51:28.246Z,19.76
2022-09-09T23:53:57.934Z,19.85
2022-09-09T23:56:29.742Z,19.89
2022-09-09T23:58:57.692Z,19.86
